createdAt,value
2022-12-14T00:02:28.243Z,97824.06
2022-12-14T00:04:56.579Z,97825.31
2022-12-14T00:07:25.073Z,97831.88
2022-12-14T00:09:53.244Z,97838.66
2022-12-14T00:12:21.619Z,97827.94
2022-12-14T00:14:50.036Z,97826.09
2022-12-14T00:17:18.559Z,97832.69
2022-12-14T00:19:48.944Z,97830.25
2022-12-14T00:22:17.550Z,97827.72
2022-12-14T00:24:45.805Z,97832.63
2022-12-14T00:27:14.425Z,97823.38
2022-12-14T00:29:42.696Z,97825.59
2022-12-14T00:32:11.152Z,97822.53
2022-12-14T00:34:39.378Z,97823.16
2022-12-14T00:37:09.268Z,97821.56
2022-12-14T00:39:37.668Z,97834.19
2022-12-14T00:42:07.782Z,97829.44
2022-12-14T00:44:36.016Z,97822.66
2022-12-14T00:47:04.500Z,97817.28
2022-12-14T00:49:32.698Z,97820.34
2022-12-14T00:52:01.198Z,97817.88
2022-12-14T00:54:30.808Z,97819.13
2022-12-14T00:56:59.315Z,97818.19
2022-12-14T00:59:27.673Z,97821.28
2022-12-14T01:01:56.204Z,97823.09
2022-12-14T01:04:24.770Z,97819.59
2022-12-14T01:06:54.876Z,97811.34
2022-12-14T01:09:24.735Z,97811.91
2022-12-14T01:11:54.681Z,97820.34
2022-12-14T01:14:23.749Z,97818.09
2022-12-14T01:16:52.277Z,97821.69
2022-12-14T01:19:20.464Z,97824.03
2022-12-14T01:21:48.884Z,97807.53
2022-12-14T01:24:17.028Z,97811.41
2022-12-14T01:26:45.544Z,97809.16
2022-12-14T01:29:16.322Z,97804.81
2022-12-14T01:31:44.515Z,97797.13
2022-12-14T01:34:17.394Z,97793.34
2022-12-14T01:36:45.938Z,97785.34
2022-12-14T01:39:15.683Z,97780.16
2022-12-14T01:41:45.423Z,97787.16
2022-12-14T01:44:52.681Z,97783.94
2022-12-14T01:47:29.793Z,97776.09
2022-12-14T01:50:01.351Z,97774.34
2022-12-14T01:52:35.216Z,97775.31
2022-12-14T01:55:05.840Z,97790.75
2022-12-14T01:57:37.202Z,97783.75
2022-12-14T02:00:10.142Z,97787.94
2022-12-14T02:02:39.720Z,97785.97
2022-12-14T02:05:09.720Z,97784.19
2022-12-14T02:07:38.805Z,97783.16
2022-12-14T02:10:08.177Z,97774.59
2022-12-14T02:12:39.885Z,97776.34
2022-12-14T02:15:10.424Z,97776.50
2022-12-14T02:17:39.642Z,97772.09
2022-12-14T02:20:08.703Z,97767.31
2022-12-14T02:23:02.530Z,97762.56
2022-12-14T02:25:56.691Z,97765.78
2022-12-14T02:28:44.223Z,97761.97
2022-12-14T02:31:17.322Z,97761.97
2022-12-14T02:33:51.123Z,97760.72
2022-12-14T02:36:23.877Z,97762.69
2022-12-14T02:38:58.840Z,97757.78
2022-12-14T02:41:38.447Z,97749.13
2022-12-14T02:44:17.555Z,97745.13
2022-12-14T02:46:51.576Z,97748.63
2022-12-14T02:49:31.146Z,97753.19
2022-12-14T02:52:04.567Z,97757.78
2022-12-14T02:54:39.444Z,97742.34
2022-12-14T02:57:11.941Z,97740.91
2022-12-14T02:59:40.929Z,97738.13
2022-12-14T03:02:12.161Z,97738.25
2022-12-14T03:04:46.074Z,97733.97
2022-12-14T03:07:32.585Z,97733.72
2022-12-14T03:10:05.823Z,97732.47
2022-12-14T03:12:34.967Z,97739.19
2022-12-14T03:15:04.952Z,97744.56
2022-12-14T03:17:35.371Z,97742.34
2022-12-14T03:20:07.187Z,97744.34
2022-12-14T03:22:43.223Z,97741.09
2022-12-14T03:25:15.141Z,97738.06
2022-12-14T03:27:47.571Z,97734.19
2022-12-14T03:30:31.705Z,97732.69
2022-12-14T03:33:10.784Z,97729.09
2022-12-14T03:35:43.573Z,97732.69
2022-12-14T03:38:17.528Z,97729.06
2022-12-14T03:40:52.848Z,97740.63
2022-12-14T03:43:28.810Z,97735.44
2022-12-14T03:46:02.008Z,97739.72
2022-12-14T03:48:34.060Z,97731.09
2022-12-14T03:51:09.340Z,97728.47
2022-12-14T03:53:41.856Z,97744.31
2022-12-14T03:56:14.246Z,97736.84
2022-12-14T03:58:51.205Z,97744.56
2022-12-14T04:01:31.275Z,97737.09
2022-12-14T04:04:04.991Z,97719.69
2022-12-14T04:06:38.716Z,97720.19
2022-12-14T04:09:17.621Z,97720.00
2022-12-14T04:12:08.238Z,97725.75
2022-12-14T04:14:56.565Z,97723.81
2022-12-14T04:17:46.239Z,97716.25
2022-12-14T04:20:18.539Z,97715.31
2022-12-14T04:22:49.782Z,97716.75
2022-12-14T04:25:39.988Z,97718.53
2022-12-14T04:28:32.303Z,97716.25
2022-12-14T04:31:02.422Z,97706.00
2022-12-14T04:33:49.633Z,97703.34
2022-12-14T04:36:23.783Z,97698.63
2022-12-14T04:38:56.154Z,97700.69
2022-12-14T04:41:26.259Z,97702.63
2022-12-14T04:43:57.344Z,97701.69
2022-12-14T04:46:27.418Z,97695.88
2022-12-14T04:49:00.232Z,97684.63
2022-12-14T04:51:33.137Z,97693.13
2022-12-14T04:54:05.920Z,97682.41
2022-12-14T04:56:36.232Z,97667.50
2022-12-14T04:59:04.814Z,97662.56
2022-12-14T05:01:44.900Z,97661.59
2022-12-14T05:04:25.498Z,97654.28
2022-12-14T05:07:04.220Z,97647.56
2022-12-14T05:09:34.200Z,97646.91
2022-12-14T05:12:06.116Z,97650.78
2022-12-14T05:14:38.909Z,97639.09
2022-12-14T05:17:09.101Z,97641.97
2022-12-14T05:19:38.594Z,97637.75
2022-12-14T05:22:09.341Z,97634.03
2022-12-14T05:24:37.675Z,97626.50
2022-12-14T05:27:06.270Z,97629.53
2022-12-14T05:29:34.689Z,97629.28
2022-12-14T05:32:03.078Z,97627.75
2022-12-14T05:34:31.847Z,97632.25
2022-12-14T05:37:00.112Z,97637.22
2022-12-14T05:39:29.984Z,97641.75
2022-12-14T05:41:58.276Z,97631.78
2022-12-14T05:44:26.722Z,97632.63
2022-12-14T05:46:56.159Z,97638.53
2022-12-14T05:49:25.340Z,97637.00
2022-12-14T05:51:53.587Z,97643.53
2022-12-14T05:54:22.059Z,97641.06
2022-12-14T05:56:51.624Z,97642.56
2022-12-14T05:59:20.140Z,97636.31
2022-12-14T06:01:50.622Z,97640.63
2022-12-14T06:04:19.571Z,97638.38
2022-12-14T06:06:48.247Z,97636.94
2022-12-14T06:09:17.722Z,97631.31
2022-12-14T06:11:46.814Z,97634.91
2022-12-14T06:14:17.249Z,97631.72
2022-12-14T06:16:49.192Z,97633.56
2022-12-14T06:19:17.692Z,97628.31
2022-12-14T06:21:46.100Z,97623.00
2022-12-14T06:24:14.991Z,97628.13
2022-12-14T06:26:43.358Z,97622.56
2022-12-14T06:29:18.075Z,97616.97
2022-12-14T06:31:49.348Z,97614.88
2022-12-14T06:34:19.199Z,97620.72
2022-12-14T06:36:48.661Z,97612.72
2022-12-14T06:39:18.348Z,97604.00
2022-12-14T06:41:50.849Z,97613.47
2022-12-14T06:44:20.889Z,97615.09
2022-12-14T06:46:49.151Z,97608.72
2022-12-14T06:49:17.966Z,97608.97
2022-12-14T06:51:46.280Z,97612.25
2022-12-14T06:54:15.604Z,97611.47
2022-12-14T06:56:44.796Z,97605.16
2022-12-14T06:59:13.970Z,97595.78
2022-12-14T07:01:44.265Z,97601.88
2022-12-14T07:04:15.161Z,97607.03
2022-12-14T07:06:43.308Z,97597.75
2022-12-14T07:09:14.723Z,97600.41
2022-12-14T07:11:42.667Z,97586.56
2022-12-14T07:14:15.664Z,97592.44
2022-12-14T07:16:48.249Z,97598.38
2022-12-14T07:19:18.680Z,97587.75
2022-12-14T07:21:46.920Z,97591.13
2022-12-14T07:24:15.807Z,97583.31
2022-12-14T07:26:44.007Z,97587.16
2022-12-14T07:29:14.829Z,97591.19
2022-12-14T07:31:43.188Z,97578.00
2022-12-14T07:34:14.581Z,97581.75
2022-12-14T07:36:43.429Z,97578.44
2022-12-14T07:39:13.717Z,97577.28
2022-12-14T07:41:42.124Z,97579.00
2022-12-14T07:44:10.918Z,97574.03
2022-12-14T07:46:39.346Z,97576.72
2022-12-14T07:49:08.491Z,97578.56
2022-12-14T07:51:41.207Z,97588.66
2022-12-14T07:54:10.001Z,97577.56
2022-12-14T07:56:41.244Z,97585.84
2022-12-14T07:59:14.610Z,97577.44
2022-12-14T08:01:43.992Z,97576.00
2022-12-14T08:04:14.204Z,97574.94
2022-12-14T08:06:44.160Z,97573.72
2022-12-14T08:09:13.028Z,97569.13
2022-12-14T08:11:41.319Z,97568.16
2022-12-14T08:14:13.631Z,97555.31
2022-12-14T08:16:41.920Z,97564.50
2022-12-14T08:19:11.733Z,97563.53
2022-12-14T08:21:40.561Z,97566.38
2022-12-14T08:24:11.914Z,97566.97
2022-12-14T08:26:42.910Z,97567.81
2022-12-14T08:29:17.923Z,97575.84
2022-12-14T08:31:48.386Z,97555.66
2022-12-14T08:34:22.159Z,97559.22
2022-12-14T08:36:50.615Z,97569.28
2022-12-14T08:39:20.471Z,97572.84
2022-12-14T08:41:48.857Z,97550.00
2022-12-14T08:44:18.817Z,97549.72
2022-12-14T08:46:47.862Z,97551.16
2022-12-14T08:49:16.648Z,97567.25
2022-12-14T08:51:44.746Z,97561.38
2022-12-14T08:54:13.159Z,97573.91
2022-12-14T08:56:42.929Z,97565.78
2022-12-14T08:59:29.959Z,97557.91
2022-12-14T09:02:00.112Z,97565.06
2022-12-14T09:04:28.960Z,97548.22
2022-12-14T09:06:57.647Z,97551.59
2022-12-14T09:09:26.116Z,97547.31
2022-12-14T09:11:55.675Z,97540.31
2022-12-14T09:14:24.190Z,97542.97
2022-12-14T09:16:52.595Z,97538.16
2022-12-14T09:19:21.225Z,97529.19
2022-12-14T09:21:49.694Z,97539.41
2022-12-14T09:24:18.251Z,97536.66
2022-12-14T09:26:47.030Z,97537.72
2022-12-14T09:29:18.731Z,97532.00
2022-12-14T09:31:47.007Z,97518.09
2022-12-14T09:34:15.601Z,97519.03
2022-12-14T09:36:43.874Z,97509.41
2022-12-14T09:39:15.073Z,97505.13
2022-12-14T09:42:00.594Z,97512.56
2022-12-14T09:44:41.119Z,97520.44
2022-12-14T09:47:13.686Z,97519.28
2022-12-14T09:49:44.176Z,97507.69
2022-12-14T09:52:17.074Z,97510.81
2022-12-14T09:54:49.780Z,97507.31
2022-12-14T09:57:24.819Z,97509.56
2022-12-14T09:59:55.752Z,97509.56
2022-12-14T10:02:32.496Z,97515.31
2022-12-14T10:05:11.403Z,97506.66
2022-12-14T10:07:43.319Z,97513.22
2022-12-14T10:10:20.562Z,97506.47
2022-12-14T10:12:57.793Z,97489.66
2022-12-14T10:15:30.007Z,97499.66
2022-12-14T10:18:27.424Z,97500.72
2022-12-14T10:21:03.425Z,97488.91
2022-12-14T10:23:32.046Z,97499.88
2022-12-14T10:26:07.643Z,97494.00
2022-12-14T10:28:44.479Z,97489.19
2022-12-14T10:31:15.738Z,97481.72
2022-12-14T10:33:45.949Z,97482.94
2022-12-14T10:36:21.291Z,97461.00
2022-12-14T10:38:54.718Z,97454.34
2022-12-14T10:41:29.397Z,97452.97
2022-12-14T10:44:01.345Z,97461.91
2022-12-14T10:46:40.963Z,97452.31
2022-12-14T10:49:15.359Z,97449.50
2022-12-14T10:51:47.091Z,97440.03
2022-12-14T10:54:24.166Z,97442.31
2022-12-14T10:56:52.786Z,97436.84
2022-12-14T10:59:39.772Z,97437.91
2022-12-14T11:02:17.483Z,97436.81
2022-12-14T11:04:49.948Z,97415.00
2022-12-14T11:07:20.152Z,97417.84
2022-12-14T11:09:48.430Z,97409.59
2022-12-14T11:12:23.357Z,97402.41
2022-12-14T11:14:57.007Z,97400.84
2022-12-14T11:17:35.507Z,97394.25
2022-12-14T11:20:18.984Z,97391.38
2022-12-14T11:22:49.462Z,97386.19
2022-12-14T11:25:29.335Z,97388.19
2022-12-14T11:27:58.334Z,97387.06
2022-12-14T11:30:26.598Z,97386.00
2022-12-14T11:32:56.624Z,97389.97
2022-12-14T11:35:24.886Z,97377.97
2022-12-14T11:37:59.811Z,97383.94
2022-12-14T11:40:28.929Z,97378.06
2022-12-14T11:43:03.018Z,97365.56
2022-12-14T11:45:33.649Z,97360.84
2022-12-14T11:48:20.960Z,97355.50
2022-12-14T11:50:51.028Z,97355.22
2022-12-14T11:53:21.280Z,97345.03
2022-12-14T11:55:53.999Z,97342.91
2022-12-14T11:58:25.250Z,97339.69
2022-12-14T12:00:58.580Z,97335.31
2022-12-14T12:03:33.817Z,97324.41
2022-12-14T12:06:04.831Z,97316.50
2022-12-14T12:08:34.748Z,97308.00
2022-12-14T12:11:05.991Z,97306.66
2022-12-14T12:13:39.470Z,97281.91
2022-12-14T12:16:14.355Z,97291.72
2022-12-14T12:18:48.021Z,97288.63
2022-12-14T12:21:18.659Z,97287.66
2022-12-14T12:23:54.804Z,97283.88
2022-12-14T12:26:28.155Z,97278.19
2022-12-14T12:29:00.937Z,97275.03
2022-12-14T12:31:33.996Z,97273.38
2022-12-14T12:34:06.418Z,97262.50
2022-12-14T12:36:34.646Z,97246.41
2022-12-14T12:39:06.134Z,97247.69
2022-12-14T12:41:41.659Z,97237.34
2022-12-14T12:44:25.601Z,97226.22
2022-12-14T12:47:24.000Z,97221.81
2022-12-14T12:49:51.481Z,97217.19
2022-12-14T12:52:23.452Z,97208.09
2022-12-14T12:54:57.407Z,97194.19
2022-12-14T12:57:27.206Z,97206.88
2022-12-14T12:59:57.264Z,97201.13
2022-12-14T13:02:31.378Z,97198.38
2022-12-14T13:05:22.355Z,97201.53
2022-12-14T13:07:54.308Z,97197.06
2022-12-14T13:10:24.990Z,97191.69
2022-12-14T13:12:55.819Z,97193.75
2022-12-14T13:15:27.532Z,97183.56
2022-12-14T13:17:59.246Z,97191.25
2022-12-14T13:20:32.078Z,97174.69
2022-12-14T13:23:15.159Z,97173.75
2022-12-14T13:25:54.740Z,97174.34
2022-12-14T13:28:33.368Z,97172.94
2022-12-14T13:31:12.446Z,97168.03
2022-12-14T13:33:56.778Z,97154.41
2022-12-14T13:36:37.593Z,97157.34
2022-12-14T13:39:21.078Z,97153.38
2022-12-14T13:41:52.630Z,97141.22
2022-12-14T13:44:38.602Z,97132.41
2022-12-14T13:47:15.473Z,97120.50
2022-12-14T13:50:18.510Z,97110.38
2022-12-14T13:52:44.065Z,97103.06
2022-12-14T13:55:26.746Z,97102.00
2022-12-14T13:57:56.115Z,97109.09
2022-12-14T14:00:57.455Z,97091.06
2022-12-14T14:03:54.497Z,97089.91
2022-12-14T14:06:35.804Z,97087.16
2022-12-14T14:09:41.877Z,97077.84
2022-12-14T14:12:46.628Z,97089.03
2022-12-14T14:16:26.980Z,97092.28
2022-12-14T14:18:49.238Z,97083.47
2022-12-14T14:21:38.868Z,97065.38
2022-12-14T14:24:22.770Z,97058.19
2022-12-14T14:27:02.487Z,97047.72
2022-12-14T14:29:31.252Z,97045.75
2022-12-14T14:32:02.604Z,97040.97
2022-12-14T14:34:49.890Z,97044.97
2022-12-14T14:37:32.852Z,97052.78
2022-12-14T14:40:29.508Z,97065.50
2022-12-14T14:43:08.260Z,97065.94
2022-12-14T14:45:41.966Z,97069.44
2022-12-14T14:48:22.877Z,97064.97
2022-12-14T14:51:03.489Z,97054.84
2022-12-14T14:53:33.644Z,97026.06
2022-12-14T14:56:27.278Z,97036.09
2022-12-14T14:59:34.191Z,97025.66
2022-12-14T15:02:05.208Z,97025.41
2022-12-14T15:04:41.886Z,97033.88
2022-12-14T15:07:15.390Z,97027.81
2022-12-14T15:09:47.413Z,97003.16
2022-12-14T15:12:25.239Z,97001.03
2022-12-14T15:14:55.782Z,96993.53
2022-12-14T15:17:25.214Z,97001.00
2022-12-14T15:19:55.842Z,96997.72
2022-12-14T15:22:26.255Z,97004.59
2022-12-14T15:24:57.078Z,96997.22
2022-12-14T15:27:28.475Z,96986.84
2022-12-14T15:30:00.650Z,96989.75
2022-12-14T15:32:29.049Z,96990.69
2022-12-14T15:35:00.516Z,96982.31
2022-12-14T15:37:33.400Z,96978.91
2022-12-14T15:40:05.333Z,96986.59
2022-12-14T15:42:33.587Z,96980.41
2022-12-14T15:45:11.540Z,96986.41
2022-12-14T15:47:39.723Z,96984.31
2022-12-14T15:50:23.855Z,96980.19
2022-12-14T15:52:52.659Z,96965.47
2022-12-14T15:55:35.411Z,96978.00
2022-12-14T15:58:09.029Z,96968.34
2022-12-14T16:00:42.717Z,96975.00
2022-12-14T16:03:19.047Z,96977.16
2022-12-14T16:05:50.090Z,96963.31
2022-12-14T16:08:18.732Z,96962.28
2022-12-14T16:10:48.512Z,96958.75
2022-12-14T16:13:22.269Z,96959.72
2022-12-14T16:15:51.986Z,96966.81
2022-12-14T16:18:21.334Z,96961.72
2022-12-14T16:20:59.745Z,96963.50
2022-12-14T16:23:31.469Z,96952.41
2022-12-14T16:26:03.101Z,96967.16
2022-12-14T16:28:33.204Z,96956.09
2022-12-14T16:31:03.831Z,96963.09
2022-12-14T16:33:34.872Z,96961.63
2022-12-14T16:36:07.152Z,96961.72
2022-12-14T16:38:40.921Z,96956.53
2022-12-14T16:41:10.041Z,96953.84
2022-12-14T16:43:39.795Z,96954.91
2022-12-14T16:46:15.840Z,96947.66
2022-12-14T16:49:18.163Z,96927.75
2022-12-14T16:54:37.034Z,96932.09
2022-12-14T16:57:07.317Z,96924.59
2022-12-14T16:59:41.100Z,96932.56
2022-12-14T17:02:26.907Z,96934.44
2022-12-14T17:04:55.954Z,96939.28
2022-12-14T17:07:29.530Z,96935.19
2022-12-14T17:09:57.826Z,96938.91
2022-12-14T17:12:27.378Z,96934.53
2022-12-14T17:14:55.776Z,96920.53
2022-12-14T17:17:30.910Z,96920.47
2022-12-14T17:20:00.607Z,96922.09
2022-12-14T17:22:34.071Z,96921.78
2022-12-14T17:25:02.780Z,96913.38
2022-12-14T17:27:33.590Z,96909.22
2022-12-14T17:30:01.788Z,96907.59
2022-12-14T17:32:31.927Z,96912.44
2022-12-14T17:35:01.157Z,96908.69
2022-12-14T17:37:36.438Z,96897.44
2022-12-14T17:40:07.824Z,96906.91
2022-12-14T17:42:36.075Z,96910.84
2022-12-14T17:45:05.207Z,96901.41
2022-12-14T17:47:34.234Z,96909.19
2022-12-14T17:50:02.599Z,96914.84
2022-12-14T17:52:35.706Z,96904.09
2022-12-14T17:55:04.486Z,96903.56
2022-12-14T17:57:33.773Z,96905.28
2022-12-14T18:00:18.761Z,96892.56
2022-12-14T18:02:48.081Z,96892.31
2022-12-14T18:05:20.008Z,96887.78
2022-12-14T18:07:50.473Z,96884.59
2022-12-14T18:10:19.746Z,96879.97
2022-12-14T18:12:49.671Z,96867.63
2022-12-14T18:15:20.115Z,96868.88
2022-12-14T18:17:49.477Z,96864.84
2022-12-14T18:20:19.533Z,96861.53
2022-12-14T18:22:50.130Z,96860.78
2022-12-14T18:25:27.409Z,96849.50
2022-12-14T18:27:56.265Z,96851.06
2022-12-14T18:30:25.313Z,96859.94
2022-12-14T18:32:54.107Z,96858.53
2022-12-14T18:35:23.778Z,96855.94
2022-12-14T18:37:54.398Z,96858.69
2022-12-14T18:40:25.966Z,96853.34
2022-12-14T18:42:54.971Z,96847.94
2022-12-14T18:45:25.673Z,96845.31
2022-12-14T18:47:55.568Z,96834.31
2022-12-14T18:50:25.423Z,96831.94
2022-12-14T18:52:59.637Z,96828.94
2022-12-14T18:55:33.216Z,96824.22
2022-12-14T18:58:05.964Z,96817.81
2022-12-14T19:00:37.376Z,96819.53
2022-12-14T19:03:06.402Z,96814.91
2022-12-14T19:05:35.264Z,96826.06
2022-12-14T19:08:07.598Z,96814.56
2022-12-14T19:10:36.004Z,96809.94
2022-12-14T19:13:04.731Z,96809.69
2022-12-14T19:15:35.882Z,96804.69
2022-12-14T19:18:05.407Z,96787.19
2022-12-14T19:20:37.492Z,96785.66
2022-12-14T19:23:07.472Z,96783.56
2022-12-14T19:25:35.758Z,96788.59
2022-12-14T19:28:30.949Z,96787.44
2022-12-14T19:30:53.062Z,96782.09
2022-12-14T19:33:23.536Z,96790.66
2022-12-14T19:35:52.045Z,96789.03
2022-12-14T19:38:22.215Z,96785.09
2022-12-14T19:40:59.448Z,96785.25
2022-12-14T19:43:29.181Z,96796.34
2022-12-14T19:45:57.628Z,96797.16
2022-12-14T19:48:27.965Z,96792.09
2022-12-14T19:50:56.446Z,96782.56
2022-12-14T19:53:26.633Z,96785.03
2022-12-14T19:55:55.240Z,96790.25
2022-12-14T19:58:25.547Z,96793.84
2022-12-14T20:00:54.247Z,96784.47
2022-12-14T20:03:23.837Z,96778.34
2022-12-14T20:05:53.607Z,96776.41
2022-12-14T20:08:22.872Z,96774.59
2022-12-14T20:10:53.905Z,96773.22
2022-12-14T20:13:23.458Z,96774.66
2022-12-14T20:15:52.299Z,96779.97
2022-12-14T20:18:21.016Z,96784.03
2022-12-14T20:20:50.347Z,96776.41
2022-12-14T20:23:19.440Z,96773.16
2022-12-14T20:25:47.944Z,96778.28
2022-12-14T20:28:18.271Z,96782.66
2022-12-14T20:30:48.081Z,96785.59
2022-12-14T20:33:16.810Z,96793.81
2022-12-14T20:35:47.745Z,96799.81
2022-12-14T20:38:16.290Z,96779.38
2022-12-14T20:40:44.745Z,96801.72
2022-12-14T20:43:13.460Z,96793.06
2022-12-14T20:45:45.170Z,96801.81
2022-12-14T20:48:14.506Z,96797.66
2022-12-14T20:50:44.598Z,96800.19
2022-12-14T20:53:19.917Z,96802.84
2022-12-14T20:55:48.343Z,96805.63
2022-12-14T20:58:17.344Z,96795.59
2022-12-14T21:00:47.176Z,96792.06
2022-12-14T21:03:15.996Z,96795.53
2022-12-14T21:05:44.799Z,96801.97
2022-12-14T21:08:15.860Z,96805.91
2022-12-14T21:10:44.133Z,96808.91
2022-12-14T21:13:11.578Z,96804.91
2022-12-14T21:15:39.947Z,96805.00
2022-12-14T21:18:09.776Z,96803.34
2022-12-14T21:20:38.201Z,96805.03
2022-12-14T21:23:06.813Z,96804.22
2022-12-14T21:25:35.076Z,96802.28
2022-12-14T21:28:03.615Z,96794.50
2022-12-14T21:30:31.816Z,96802.38
2022-12-14T21:33:00.382Z,96811.56
2022-12-14T21:35:30.030Z,96802.66
2022-12-14T21:37:58.620Z,96812.16
2022-12-14T21:40:44.580Z,96801.13
2022-12-14T21:43:13.572Z,96817.91
2022-12-14T21:45:41.897Z,96814.69
2022-12-14T21:48:10.590Z,96820.91
2022-12-14T21:50:45.303Z,96818.72
2022-12-14T21:53:13.878Z,96813.13
2022-12-14T21:55:49.701Z,96809.31
2022-12-14T21:58:17.668Z,96809.13
2022-12-14T22:00:50.303Z,96800.72
2022-12-14T22:03:23.189Z,96807.31
2022-12-14T22:05:52.975Z,96801.50
2022-12-14T22:08:21.539Z,96806.69
2022-12-14T22:10:50.163Z,96799.13
2022-12-14T22:13:19.306Z,96791.84
2022-12-14T22:15:47.640Z,96781.63
2022-12-14T22:18:18.815Z,96791.09
2022-12-14T22:20:48.448Z,96791.72
2022-12-14T22:23:20.910Z,96796.66
2022-12-14T22:25:51.073Z,96798.59
2022-12-14T22:28:20.070Z,96789.03
2022-12-14T22:30:48.546Z,96789.91
2022-12-14T22:33:17.342Z,96808.25
2022-12-14T22:35:46.171Z,96807.50
2022-12-14T22:38:14.908Z,96814.94
2022-12-14T22:40:44.462Z,96807.59
2022-12-14T22:43:13.120Z,96807.97
2022-12-14T22:45:41.556Z,96810.94
2022-12-14T22:48:10.208Z,96800.22
2022-12-14T22:50:38.481Z,96801.06
2022-12-14T22:53:07.117Z,96798.03
2022-12-14T22:55:38.288Z,96808.75
2022-12-14T22:58:10.255Z,96808.19
2022-12-14T23:00:38.553Z,96800.44
2022-12-14T23:03:07.797Z,96796.72
2022-12-14T23:05:36.049Z,96802.06
2022-12-14T23:08:04.867Z,96796.94
2022-12-14T23:10:50.301Z,96804.44
2022-12-14T23:13:37.784Z,96803.25
2022-12-14T23:16:24.071Z,96796.59
2022-12-14T23:19:10.188Z,96800.03
2022-12-14T23:21:57.042Z,96803.41
2022-12-14T23:24:43.139Z,96806.97
2022-12-14T23:27:29.334Z,96801.94
2022-12-14T23:30:16.987Z,96796.16
2022-12-14T23:33:02.671Z,96793.03
2022-12-14T23:35:48.958Z,96801.41
2022-12-14T23:38:34.593Z,96805.78
2022-12-14T23:41:20.649Z,96817.13
2022-12-14T23:44:06.648Z,96819.75
2022-12-14T23:46:54.039Z,96820.47
2022-12-14T23:49:39.663Z,96827.31
2022-12-14T23:52:25.751Z,96826.50
2022-12-14T23:55:11.530Z,96823.78
2022-12-14T23:57:57.683Z,96827.19
